createdAt,value
2024-02-27T00:07:54.871Z,1.78
2024-02-27T00:19:55.309Z,1.49
2024-02-27T00:31:55.709Z,1.92
2024-02-27T00:43:56.164Z,2.31
2024-02-27T00:55:56.602Z,1.54
2024-02-27T01:07:57.123Z,0.28
2024-02-27T01:19:57.566Z,0.05
2024-02-27T01:31:57.992Z,0.31
2024-02-27T01:43:58.484Z,0.12
2024-02-27T01:55:58.917Z,0.09
2024-02-27T02:07:59.522Z,0.45
2024-02-27T02:19:59.861Z,1.66
2024-02-27T02:32:00.249Z,2.36
2024-02-27T02:44:01.200Z,2.53
2024-02-27T02:56:01.170Z,1.38
2024-02-27T03:08:01.592Z,0.29
2024-02-27T03:20:02.072Z,0.11
2024-02-27T03:32:02.527Z,0.73
2024-02-27T03:44:02.951Z,0.01
2024-02-27T03:56:03.413Z,0.01
2024-02-27T04:08:03.885Z,0.00
2024-02-27T04:20:04.571Z,0.29
2024-02-27T04:32:04.787Z,0.00
2024-02-27T04:44:05.229Z,0.01
2024-02-27T04:56:05.668Z,0.01
2024-02-27T05:08:06.175Z,0.17
2024-02-27T05:20:06.593Z,0.20
2024-02-27T05:32:07.066Z,0.00
2024-02-27T05:44:07.492Z,0.07
2024-02-27T05:56:07.950Z,0.03
2024-02-27T06:08:08.489Z,0.09
2024-02-27T06:20:09.512Z,0.22
2024-02-27T06:32:09.259Z,0.02
2024-02-27T06:44:09.741Z,0.01
2024-02-27T06:56:10.223Z,0.11
2024-02-27T07:08:10.682Z,0.02
2024-02-27T07:20:11.121Z,0.46
2024-02-27T07:32:11.562Z,0.28
2024-02-27T07:44:11.990Z,0.69
2024-02-27T07:56:12.452Z,0.40
2024-02-27T08:08:12.957Z,0.58
2024-02-27T08:20:13.388Z,0.52
2024-02-27T08:32:13.815Z,1.71
2024-02-27T08:44:14.230Z,1.22
2024-02-27T09:08:15.227Z,1.38
2024-02-27T09:20:15.616Z,1.97
2024-02-27T09:32:16.097Z,2.55
2024-02-27T09:44:16.571Z,2.56
2024-02-27T09:56:16.994Z,1.76
2024-02-27T10:08:17.439Z,1.80
2024-02-27T10:20:17.954Z,2.22
2024-02-27T10:32:18.532Z,1.56
2024-02-27T10:44:18.836Z,1.77
2024-02-27T10:56:19.325Z,1.32
2024-02-27T11:08:19.702Z,2.08
2024-02-27T11:20:20.164Z,0.96
2024-02-27T11:32:20.769Z,3.60
2024-02-27T11:44:21.105Z,1.14
2024-02-27T11:56:21.540Z,1.47
2024-02-27T12:08:21.980Z,1.70
2024-02-27T12:20:22.458Z,0.94
2024-02-27T12:32:22.924Z,1.01
2024-02-27T12:44:23.365Z,0.80
2024-02-27T12:56:23.783Z,1.22
2024-02-27T13:08:24.276Z,1.02
2024-02-27T13:20:24.744Z,1.45
2024-02-27T13:32:25.237Z,1.76
2024-02-27T13:44:25.654Z,1.48
2024-02-27T13:56:26.099Z,1.48
2024-02-27T14:08:26.510Z,1.91
2024-02-27T14:20:27.029Z,1.79
2024-02-27T14:32:29.536Z,1.00
2024-02-27T14:44:27.886Z,1.90
2024-02-27T14:56:28.348Z,2.54
2024-02-27T15:08:28.837Z,1.94
2024-02-27T15:20:29.259Z,1.68
2024-02-27T15:32:29.735Z,1.79
2024-02-27T15:44:30.148Z,1.75
2024-02-27T15:56:30.635Z,0.50
2024-02-27T16:08:31.148Z,0.98
2024-02-27T16:20:31.508Z,1.67
2024-02-27T16:32:32.065Z,0.30
2024-02-27T16:44:32.483Z,0.47
2024-02-27T16:56:32.881Z,0.24
2024-02-27T17:08:33.361Z,0.77
2024-02-27T17:20:33.781Z,0.50
2024-02-27T17:32:34.353Z,0.51
2024-02-27T17:44:34.678Z,0.23
2024-02-27T17:56:35.178Z,1.29
2024-02-27T18:08:35.607Z,0.65
2024-02-27T18:20:36.092Z,1.09
2024-02-27T18:32:36.544Z,0.77
2024-02-27T18:44:36.938Z,0.91
2024-02-27T18:56:37.423Z,1.11
2024-02-27T19:08:37.885Z,1.86
2024-02-27T19:20:38.482Z,0.51
2024-02-27T19:32:38.785Z,1.73
2024-02-27T19:44:39.205Z,1.47
2024-02-27T19:56:39.649Z,0.47
2024-02-27T20:08:40.132Z,0.70
2024-02-27T20:20:40.586Z,2.39
2024-02-27T20:32:41.032Z,0.48
2024-02-27T20:44:41.440Z,1.59
2024-02-27T20:56:41.943Z,0.78
2024-02-27T21:08:42.420Z,0.54
2024-02-27T21:20:42.857Z,0.02
2024-02-27T21:32:43.357Z,0.25
2024-02-27T21:44:43.750Z,0.00
2024-02-27T21:56:44.274Z,0.09
2024-02-27T22:08:44.660Z,0.03
2024-02-27T22:20:45.099Z,0.06
2024-02-27T22:32:45.559Z,0.15
2024-02-27T22:44:46.021Z,0.22
2024-02-27T22:56:46.469Z,0.11
2024-02-27T23:08:46.920Z,0.09
2024-02-27T23:20:47.564Z,0.00
2024-02-27T23:32:47.886Z,0.00
2024-02-27T23:44:48.282Z,0.00
2024-02-27T23:56:49.033Z,0.01
